Time;durP1;ratioP1;P1;durP2;ratioP2;P2;SDS_P1;SDS_P2;PMS_P1;PMS_P2;Temp;Humidity;BMP_temperature;BMP_pressure;BME280_temperature;BME280_humidity;BME280_pressure;Samples;Min_cycle;Max_cycle;Signal;HPM_P1;HPM_P2
2023/03/15 00:01:19;;;;;;;2.17;2.07;;;;;;;;;;5082482;27;20233;-65
2023/03/15 00:03:47;;;;;;;2.37;1.90;;;;;;;;;;5089319;27;20237;-65
2023/03/15 00:06:15;;;;;;;2.23;2.13;;;;;;;;;;5086293;27;20213;-64
2023/03/15 00:08:46;;;;;;;3.33;3.03;;;;;;;;;;5099157;27;20687;-64
2023/03/15 00:11:15;;;;;;;3.27;2.97;;;;;;;;;;5080593;27;20228;-64
2023/03/15 00:13:43;;;;;;;4.37;3.17;;;;;;;;;;5088129;27;20707;-63
2023/03/15 00:16:16;;;;;;;6.73;3.70;;;;;;;;;;5103199;28;20251;-63
2023/03/15 00:18:45;;;;;;;3.90;3.60;;;;;;;;;;5107743;28;20211;-65
2023/03/15 00:21:13;;;;;;;6.40;4.73;;;;;;;;;;5096767;28;20581;-65
2023/03/15 00:23:40;;;;;;;6.23;3.43;;;;;;;;;;5097060;28;20711;-63
2023/03/15 00:26:08;;;;;;;5.37;3.43;;;;;;;;;;5121795;27;20208;-64
2023/03/15 00:28:35;;;;;;;4.70;3.40;;;;;;;;;;5097570;28;20296;-63
2023/03/15 00:31:08;;;;;;;4.23;3.57;;;;;;;;;;5085700;27;20224;-65
2023/03/15 00:33:35;;;;;;;4.03;3.63;;;;;;;;;;5084275;27;20247;-65
2023/03/15 00:36:07;;;;;;;6.90;3.97;;;;;;;;;;5101882;27;20237;-63
2023/03/15 00:38:35;;;;;;;7.00;4.03;;;;;;;;;;5096038;27;20220;-64
2023/03/15 00:41:06;;;;;;;9.33;4.70;;;;;;;;;;5099062;27;20212;-64
2023/03/15 00:43:34;;;;;;;8.00;5.40;;;;;;;;;;5104038;27;20227;-64
2023/03/15 00:46:02;;;;;;;6.63;4.07;;;;;;;;;;5098829;27;20293;-64
2023/03/15 00:48:29;;;;;;;6.17;4.50;;;;;;;;;;5088439;27;20318;-66
2023/03/15 00:51:09;;;;;;;7.43;4.63;;;;;;;;;;5091387;27;22143;-64
2023/03/15 00:53:38;;;;;;;9.30;4.60;;;;;;;;;;5087594;27;20227;-63
2023/03/15 00:56:12;;;;;;;8.13;5.00;;;;;;;;;;5095216;27;20211;-65
2023/03/15 00:58:40;;;;;;;6.93;3.83;;;;;;;;;;5104969;27;20729;-63
2023/03/15 01:01:12;;;;;;;5.93;4.40;;;;;;;;;;5114204;27;20767;-65
2023/03/15 01:03:40;;;;;;;7.73;3.57;;;;;;;;;;5103313;27;20333;-65
2023/03/15 01:06:11;;;;;;;6.47;3.63;;;;;;;;;;5112862;27;20213;-63
2023/03/15 01:08:40;;;;;;;6.23;4.17;;;;;;;;;;5110890;27;20242;-64
2023/03/15 01:11:09;;;;;;;5.80;4.63;;;;;;;;;;5090320;27;20224;-63
2023/03/15 01:13:37;;;;;;;7.07;4.13;;;;;;;;;;5087326;27;21343;-64
2023/03/15 01:16:05;;;;;;;7.37;4.07;;;;;;;;;;5088807;27;20204;-64
2023/03/15 01:18:32;;;;;;;7.07;4.50;;;;;;;;;;5090443;27;20691;-64
2023/03/15 01:21:00;;;;;;;7.90;5.00;;;;;;;;;;5105880;27;20241;-64
2023/03/15 01:23:27;;;;;;;7.10;4.83;;;;;;;;;;5093273;27;20233;-65
2023/03/15 01:25:54;;;;;;;8.60;4.83;;;;;;;;;;5070306;27;20330;-64
2023/03/15 01:28:22;;;;;;;8.43;5.60;;;;;;;;;;5072565;27;20224;-64
2023/03/15 01:30:50;;;;;;;10.83;5.93;;;;;;;;;;5069793;27;20412;-63
2023/03/15 01:33:17;;;;;;;11.77;7.53;;;;;;;;;;5080951;27;20220;-63
2023/03/15 01:35:45;;;;;;;11.03;5.80;;;;;;;;;;5083201;27;20208;-64
2023/03/15 01:38:12;;;;;;;13.43;5.90;;;;;;;;;;5088162;27;20214;-65
2023/03/15 01:40:45;;;;;;;7.83;5.80;;;;;;;;;;5090995;27;20227;-65
2023/03/15 01:43:18;;;;;;;12.03;6.50;;;;;;;;;;5090041;27;20588;-63
2023/03/15 01:46:04;;;;;;;10.73;6.30;;;;;;;;;;5078306;27;20200;-64
2023/03/15 01:48:50;;;;;;;15.83;7.17;;;;;;;;;;5067357;27;20332;-64
2023/03/15 01:51:22;;;;;;;15.07;6.07;;;;;;;;;;5067877;27;20233;-65
2023/03/15 01:53:59;;;;;;;8.50;4.80;;;;;;;;;;5061106;27;20858;-63
2023/03/15 01:56:27;;;;;;;10.73;5.20;;;;;;;;;;5084053;27;20258;-64
2023/03/15 01:58:55;;;;;;;10.33;4.43;;;;;;;;;;5071991;27;20644;-62
2023/03/15 02:01:22;;;;;;;9.53;4.43;;;;;;;;;;5085555;27;20657;-65
2023/03/15 02:03:52;;;;;;;7.10;4.10;;;;;;;;;;5075583;27;20592;-65
2023/03/15 02:06:22;;;;;;;10.07;4.13;;;;;;;;;;5067536;27;20470;-65
2023/03/15 02:08:51;;;;;;;9.83;4.30;;;;;;;;;;5073546;27;20205;-63
2023/03/15 02:11:20;;;;;;;7.30;4.33;;;;;;;;;;5089026;27;20311;-64
2023/03/15 02:13:49;;;;;;;6.70;4.17;;;;;;;;;;5094647;27;20337;-63
2023/03/15 02:16:16;;;;;;;14.87;4.27;;;;;;;;;;5107055;27;20629;-64
2023/03/15 02:18:44;;;;;;;10.87;4.80;;;;;;;;;;5091652;27;20698;-62
2023/03/15 02:21:14;;;;;;;4.60;3.80;;;;;;;;;;5101550;27;20227;-64
2023/03/15 02:23:42;;;;;;;6.27;3.60;;;;;;;;;;5101915;27;20305;-64
2023/03/15 02:26:13;;;;;;;10.23;3.73;;;;;;;;;;5087557;27;20701;-63
2023/03/15 02:28:41;;;;;;;6.20;3.83;;;;;;;;;;5091452;27;20215;-63
2023/03/15 02:31:09;;;;;;;6.23;4.00;;;;;;;;;;5084378;27;20954;-64
2023/03/15 02:33:47;;;;;;;5.13;4.20;;;;;;;;;;5071655;27;20310;-63
2023/03/15 02:36:16;;;;;;;4.47;3.47;;;;;;;;;;5085067;27;20736;-63
2023/03/15 02:38:44;;;;;;;4.83;3.37;;;;;;;;;;5075479;27;20454;-63
2023/03/15 02:41:12;;;;;;;7.43;3.77;;;;;;;;;;5075182;27;20204;-63
2023/03/15 02:43:40;;;;;;;8.63;3.60;;;;;;;;;;5080404;27;20254;-62
2023/03/15 02:46:09;;;;;;;6.20;3.57;;;;;;;;;;5074079;27;20235;-63
2023/03/15 02:48:37;;;;;;;7.80;3.10;;;;;;;;;;5072868;27;20214;-65
2023/03/15 02:51:04;;;;;;;8.23;3.40;;;;;;;;;;5081316;27;20680;-64
2023/03/15 02:53:34;;;;;;;4.67;3.50;;;;;;;;;;5068225;27;20346;-63
2023/03/15 02:56:02;;;;;;;8.10;3.60;;;;;;;;;;5085922;27;20199;-64
2023/03/15 02:58:31;;;;;;;6.50;3.33;;;;;;;;;;5097620;27;20204;-63
2023/03/15 03:00:58;;;;;;;7.87;4.20;;;;;;;;;;5106643;27;20700;-64
2023/03/15 03:03:26;;;;;;;5.37;3.57;;;;;;;;;;5120714;27;20251;-63
2023/03/15 03:05:53;;;;;;;4.00;3.60;;;;;;;;;;5104800;27;20211;-63
2023/03/15 03:08:20;;;;;;;4.50;2.73;;;;;;;;;;5118287;27;20204;-64
2023/03/15 03:10:48;;;;;;;5.37;3.60;;;;;;;;;;5099007;27;20199;-65
2023/03/15 03:13:17;;;;;;;8.17;3.00;;;;;;;;;;5103115;27;20688;-63
2023/03/15 03:15:44;;;;;;;3.97;3.20;;;;;;;;;;5103257;27;20203;-63
2023/03/15 03:18:12;;;;;;;3.73;3.00;;;;;;;;;;5083171;27;20207;-62
2023/03/15 03:20:39;;;;;;;4.47;3.30;;;;;;;;;;5088565;27;20291;-65
2023/03/15 03:23:06;;;;;;;5.20;3.30;;;;;;;;;;5085926;27;20251;-63
2023/03/15 03:25:35;;;;;;;11.17;4.70;;;;;;;;;;5086449;27;20216;-64
2023/03/15 03:28:03;;;;;;;12.77;5.37;;;;;;;;;;5063068;27;20218;-63
2023/03/15 03:30:30;;;;;;;12.67;6.80;;;;;;;;;;5073598;27;20219;-62
2023/03/15 03:32:58;;;;;;;4.97;3.60;;;;;;;;;;5073266;27;20236;-65
2023/03/15 03:35:25;;;;;;;10.50;4.10;;;;;;;;;;5070988;27;20226;-64
2023/03/15 03:37:53;;;;;;;12.10;6.10;;;;;;;;;;5090882;27;20488;-64
2023/03/15 03:40:20;;;;;;;6.10;3.93;;;;;;;;;;5086156;27;20749;-64
2023/03/15 03:42:47;;;;;;;13.50;4.57;;;;;;;;;;5084243;27;20733;-64
2023/03/15 03:45:16;;;;;;;5.67;3.20;;;;;;;;;;5087990;28;20331;-64
2023/03/15 03:47:44;;;;;;;4.30;2.70;;;;;;;;;;5100818;27;20207;-64
2023/03/15 03:50:11;;;;;;;4.07;3.17;;;;;;;;;;5104475;27;20693;-64
2023/03/15 03:52:38;;;;;;;7.60;3.10;;;;;;;;;;5078046;27;20782;-64
2023/03/15 03:55:06;;;;;;;5.03;3.77;;;;;;;;;;5088685;28;20311;-64
2023/03/15 03:57:33;;;;;;;3.70;3.03;;;;;;;;;;5082247;27;20203;-64
2023/03/15 04:00:01;;;;;;;5.43;2.90;;;;;;;;;;5087753;28;20567;-65
2023/03/15 04:02:28;;;;;;;6.70;3.33;;;;;;;;;;5076550;27;20242;-65
2023/03/15 04:04:56;;;;;;;9.00;3.37;;;;;;;;;;5084856;27;21023;-63
2023/03/15 04:07:23;;;;;;;7.60;3.70;;;;;;;;;;5065622;27;20375;-65
2023/03/15 04:09:51;;;;;;;9.20;3.80;;;;;;;;;;5074918;27;20296;-63
2023/03/15 04:12:18;;;;;;;6.37;3.43;;;;;;;;;;5083605;27;20336;-65
2023/03/15 04:14:46;;;;;;;6.00;4.10;;;;;;;;;;5078998;27;20223;-63
2023/03/15 04:17:13;;;;;;;9.00;4.33;;;;;;;;;;5105883;28;20216;-65
2023/03/15 04:19:40;;;;;;;9.77;5.03;;;;;;;;;;5104538;27;20192;-64
2023/03/15 04:22:09;;;;;;;8.97;3.77;;;;;;;;;;5109187;27;20231;-64
2023/03/15 04:24:38;;;;;;;6.60;4.10;;;;;;;;;;5104913;27;20227;-63
2023/03/15 04:27:06;;;;;;;7.00;5.70;;;;;;;;;;5100394;27;20218;-63
2023/03/15 04:29:33;;;;;;;7.93;5.63;;;;;;;;;;5101038;27;20277;-64
2023/03/15 04:32:01;;;;;;;6.33;4.00;;;;;;;;;;5093834;27;20220;-64
2023/03/15 04:34:29;;;;;;;7.07;3.63;;;;;;;;;;5089223;27;20230;-64
2023/03/15 04:36:56;;;;;;;7.93;4.27;;;;;;;;;;5093402;27;20200;-65
2023/03/15 04:39:23;;;;;;;4.97;3.90;;;;;;;;;;5086316;27;20290;-64
2023/03/15 04:41:53;;;;;;;7.17;3.87;;;;;;;;;;5086805;27;20245;-63
2023/03/15 04:44:25;;;;;;;7.10;3.63;;;;;;;;;;5087907;27;20235;-65
2023/03/15 04:46:56;;;;;;;6.87;4.13;;;;;;;;;;5102833;27;20203;-65
2023/03/15 04:49:24;;;;;;;5.20;3.67;;;;;;;;;;5108706;27;20207;-64
2023/03/15 04:51:51;;;;;;;7.00;3.40;;;;;;;;;;5091581;27;20306;-63
2023/03/15 04:54:19;;;;;;;6.97;4.27;;;;;;;;;;5101106;27;20580;-63
2023/03/15 04:56:46;;;;;;;8.57;4.43;;;;;;;;;;5086708;27;20203;-63
2023/03/15 04:59:13;;;;;;;5.10;4.03;;;;;;;;;;5105125;27;20204;-64
2023/03/15 05:01:41;;;;;;;5.57;3.73;;;;;;;;;;5101522;27;20210;-64
2023/03/15 05:04:08;;;;;;;7.97;5.33;;;;;;;;;;5105551;27;20266;-64
2023/03/15 05:06:36;;;;;;;6.93;4.30;;;;;;;;;;5100119;27;20864;-63
2023/03/15 05:09:03;;;;;;;7.47;5.00;;;;;;;;;;5100081;27;21631;-63
2023/03/15 05:11:30;;;;;;;7.60;4.83;;;;;;;;;;5078440;27;20321;-63
2023/03/15 05:13:58;;;;;;;9.03;3.90;;;;;;;;;;5074410;27;20222;-63
2023/03/15 05:16:25;;;;;;;5.80;3.80;;;;;;;;;;5080083;27;20210;-62
2023/03/15 05:18:53;;;;;;;9.87;4.20;;;;;;;;;;5078903;27;20208;-64
2023/03/15 05:21:22;;;;;;;6.53;4.40;;;;;;;;;;5071947;27;21116;-64
2023/03/15 05:23:50;;;;;;;12.07;4.50;;;;;;;;;;5063990;27;20233;-63
2023/03/15 05:26:17;;;;;;;13.50;5.77;;;;;;;;;;5080781;27;20822;-64
2023/03/15 05:28:45;;;;;;;16.10;9.13;;;;;;;;;;5078854;27;20555;-64
2023/03/15 05:31:12;;;;;;;9.13;4.90;;;;;;;;;;5077978;27;20219;-63
2023/03/15 05:33:45;;;;;;;8.63;5.10;;;;;;;;;;5073461;27;20263;-63
2023/03/15 05:36:14;;;;;;;37.20;27.93;;;;;;;;;;5103046;27;20571;-63
2023/03/15 05:38:41;;;;;;;17.50;15.23;;;;;;;;;;5098197;27;20207;-63
2023/03/15 05:41:16;;;;;;;8.07;5.00;;;;;;;;;;5085846;27;20913;-63
2023/03/15 05:43:44;;;;;;;6.77;4.53;;;;;;;;;;5085158;27;20390;-62
2023/03/15 05:46:11;;;;;;;9.93;5.60;;;;;;;;;;5087741;27;20689;-64
2023/03/15 05:48:39;;;;;;;17.97;8.17;;;;;;;;;;5091793;27;20204;-63
2023/03/15 05:51:06;;;;;;;15.77;9.40;;;;;;;;;;5088218;27;20231;-64
2023/03/15 05:53:34;;;;;;;18.43;8.87;;;;;;;;;;5084636;27;20358;-64
2023/03/15 05:56:02;;;;;;;14.30;7.57;;;;;;;;;;5107816;27;20298;-64
2023/03/15 05:58:30;;;;;;;14.03;7.90;;;;;;;;;;5085892;27;21024;-63
2023/03/15 06:00:57;;;;;;;11.70;5.70;;;;;;;;;;5086986;27;20309;-64
2023/03/15 06:03:24;;;;;;;9.07;5.33;;;;;;;;;;5078655;27;20329;-64
2023/03/15 06:05:51;;;;;;;6.20;5.10;;;;;;;;;;5099112;27;20211;-63
2023/03/15 06:08:19;;;;;;;9.57;5.13;;;;;;;;;;5083155;27;20261;-63
2023/03/15 06:10:46;;;;;;;7.53;4.53;;;;;;;;;;5087832;27;20211;-64
2023/03/15 06:13:13;;;;;;;10.90;6.47;;;;;;;;;;5089377;27;20290;-64
2023/03/15 06:15:46;;;;;;;13.73;5.13;;;;;;;;;;5091462;27;20211;-65
2023/03/15 06:18:16;;;;;;;13.17;5.17;;;;;;;;;;5084217;27;20575;-63
2023/03/15 06:20:43;;;;;;;9.03;4.13;;;;;;;;;;5083406;27;20233;-63
2023/03/15 06:23:11;;;;;;;7.47;4.47;;;;;;;;;;5087826;27;23338;-64
2023/03/15 06:25:38;;;;;;;7.93;4.13;;;;;;;;;;5082226;27;20573;-65
2023/03/15 06:28:06;;;;;;;5.80;3.67;;;;;;;;;;5086351;27;20249;-63
2023/03/15 06:30:34;;;;;;;5.90;3.73;;;;;;;;;;5088333;27;20268;-64
2023/03/15 06:33:03;;;;;;;9.90;4.30;;;;;;;;;;5087845;27;20866;-64
2023/03/15 06:35:30;;;;;;;10.13;4.53;;;;;;;;;;5081796;27;20213;-63
2023/03/15 06:38:00;;;;;;;11.73;6.10;;;;;;;;;;5092501;27;20291;-64
2023/03/15 06:40:27;;;;;;;13.13;6.37;;;;;;;;;;5088851;27;20724;-63
2023/03/15 06:42:54;;;;;;;13.60;6.73;;;;;;;;;;5102843;27;20258;-63
2023/03/15 06:45:22;;;;;;;14.00;7.20;;;;;;;;;;5091228;27;20299;-64
2023/03/15 06:47:49;;;;;;;11.70;6.40;;;;;;;;;;5086857;27;20204;-64
2023/03/15 06:50:20;;;;;;;9.03;5.67;;;;;;;;;;5083965;27;20635;-63
2023/03/15 06:52:47;;;;;;;13.10;6.37;;;;;;;;;;5105219;27;20298;-63
2023/03/15 06:55:17;;;;;;;13.47;7.07;;;;;;;;;;5082747;27;20228;-63
2023/03/15 06:57:44;;;;;;;10.37;5.90;;;;;;;;;;5092952;27;20206;-65
2023/03/15 07:00:12;;;;;;;8.40;6.00;;;;;;;;;;5120310;27;20196;-65
2023/03/15 07:02:39;;;;;;;9.57;7.37;;;;;;;;;;5122762;27;20618;-63
2023/03/15 07:05:07;;;;;;;9.53;4.80;;;;;;;;;;5097051;27;20843;-63
2023/03/15 07:07:34;;;;;;;8.93;5.93;;;;;;;;;;5114922;27;20277;-63
2023/03/15 07:10:02;;;;;;;12.30;5.93;;;;;;;;;;5084695;27;20739;-63
2023/03/15 07:12:29;;;;;;;9.17;5.30;;;;;;;;;;5085349;27;20280;-63
2023/03/15 07:14:57;;;;;;;8.53;4.60;;;;;;;;;;5088790;27;20233;-63
2023/03/15 07:17:24;;;;;;;8.73;5.03;;;;;;;;;;5088740;27;20674;-63
2023/03/15 07:19:51;;;;;;;6.77;4.70;;;;;;;;;;5085758;27;20239;-65
2023/03/15 07:22:23;;;;;;;8.60;5.50;;;;;;;;;;5099632;27;20212;-66
2023/03/15 07:24:50;;;;;;;9.57;5.17;;;;;;;;;;5085185;27;20238;-63
2023/03/15 07:27:17;;;;;;;6.90;4.50;;;;;;;;;;5098438;27;20221;-63
2023/03/15 07:29:45;;;;;;;9.23;4.50;;;;;;;;;;5085209;27;20216;-65
2023/03/15 07:32:13;;;;;;;8.73;5.03;;;;;;;;;;5100841;27;20265;-63
2023/03/15 07:34:40;;;;;;;6.63;4.70;;;;;;;;;;5085767;27;20218;-65
2023/03/15 07:37:08;;;;;;;8.07;4.80;;;;;;;;;;5079278;27;21708;-65
2023/03/15 07:39:35;;;;;;;8.50;4.67;;;;;;;;;;5090054;27;20290;-65
2023/03/15 07:42:05;;;;;;;9.53;4.43;;;;;;;;;;5085981;27;20299;-65
2023/03/15 07:44:33;;;;;;;6.37;4.43;;;;;;;;;;5105809;27;20253;-65
2023/03/15 07:47:00;;;;;;;8.90;4.43;;;;;;;;;;5083072;27;20262;-64
2023/03/15 07:49:28;;;;;;;8.00;4.47;;;;;;;;;;5092365;27;21061;-64
2023/03/15 07:51:56;;;;;;;11.07;4.57;;;;;;;;;;5083947;27;20726;-63
2023/03/15 07:54:23;;;;;;;10.47;4.27;;;;;;;;;;5089417;27;21873;-65
2023/03/15 07:56:52;;;;;;;8.43;4.20;;;;;;;;;;5108764;27;20670;-63
2023/03/15 07:59:20;;;;;;;9.57;4.57;;;;;;;;;;5090248;27;21303;-63
2023/03/15 08:01:47;;;;;;;11.00;4.77;;;;;;;;;;5092796;27;20200;-64
2023/03/15 08:04:15;;;;;;;6.90;4.63;;;;;;;;;;5085210;27;20342;-63
2023/03/15 08:06:42;;;;;;;8.53;4.80;;;;;;;;;;5088773;27;20213;-63
2023/03/15 08:09:10;;;;;;;8.60;5.00;;;;;;;;;;5101431;27;20336;-65
2023/03/15 08:11:38;;;;;;;8.10;4.10;;;;;;;;;;5090278;27;20220;-63
2023/03/15 08:14:06;;;;;;;8.33;4.20;;;;;;;;;;5086840;27;20319;-64
2023/03/15 08:16:33;;;;;;;9.27;4.33;;;;;;;;;;5115384;27;20236;-65
2023/03/15 08:19:00;;;;;;;7.33;4.03;;;;;;;;;;5118097;27;20860;-65
2023/03/15 08:21:34;;;;;;;6.20;3.90;;;;;;;;;;5109091;27;20231;-64
2023/03/15 08:24:01;;;;;;;9.77;4.40;;;;;;;;;;5113509;27;20768;-63
2023/03/15 08:26:29;;;;;;;8.87;4.10;;;;;;;;;;5110646;27;20632;-64
2023/03/15 08:28:56;;;;;;;6.73;3.70;;;;;;;;;;5102534;27;20219;-64
2023/03/15 08:31:23;;;;;;;8.30;3.90;;;;;;;;;;5085921;27;20241;-64
2023/03/15 08:33:52;;;;;;;7.20;4.00;;;;;;;;;;5109812;27;20279;-64
2023/03/15 08:36:20;;;;;;;5.90;3.70;;;;;;;;;;5103872;27;20299;-64
2023/03/15 08:38:47;;;;;;;5.27;3.97;;;;;;;;;;5090639;27;20204;-64
2023/03/15 08:41:14;;;;;;;7.83;3.80;;;;;;;;;;5089961;27;20236;-63
2023/03/15 08:43:42;;;;;;;11.63;3.97;;;;;;;;;;5086222;27;20235;-65
2023/03/15 08:46:09;;;;;;;8.70;3.60;;;;;;;;;;5087351;27;20301;-63
2023/03/15 08:48:36;;;;;;;7.20;3.97;;;;;;;;;;5094608;27;20205;-64
2023/03/15 08:51:04;;;;;;;9.80;4.07;;;;;;;;;;5087345;27;20232;-63
2023/03/15 08:53:32;;;;;;;8.20;3.77;;;;;;;;;;5089781;27;20230;-65
2023/03/15 08:56:00;;;;;;;4.63;3.27;;;;;;;;;;5087089;27;20205;-63
2023/03/15 08:58:28;;;;;;;6.70;3.63;;;;;;;;;;5097684;27;20239;-64
2023/03/15 09:00:56;;;;;;;5.43;3.30;;;;;;;;;;5105305;27;20577;-63
2023/03/15 09:03:23;;;;;;;3.40;3.10;;;;;;;;;;5105393;27;20243;-65
2023/03/15 09:05:55;;;;;;;6.03;3.33;;;;;;;;;;5111212;27;20681;-63
2023/03/15 09:08:24;;;;;;;6.63;3.13;;;;;;;;;;5088091;27;20215;-63
2023/03/15 09:10:55;;;;;;;6.83;4.07;;;;;;;;;;5087293;27;20331;-64
2023/03/15 09:13:23;;;;;;;4.93;3.20;;;;;;;;;;5105096;27;20651;-63
2023/03/15 09:15:52;;;;;;;7.17;3.07;;;;;;;;;;5105792;27;20304;-63
2023/03/15 09:18:20;;;;;;;8.17;3.27;;;;;;;;;;5090541;27;20303;-64
2023/03/15 09:20:47;;;;;;;3.93;3.20;;;;;;;;;;5094482;27;20207;-64
2023/03/15 09:23:15;;;;;;;5.10;3.20;;;;;;;;;;5108019;27;20243;-64
2023/03/15 09:25:42;;;;;;;4.97;3.50;;;;;;;;;;5088942;27;20334;-64
2023/03/15 09:28:10;;;;;;;4.23;3.00;;;;;;;;;;5093886;27;20286;-65
2023/03/15 09:30:38;;;;;;;4.40;3.10;;;;;;;;;;5087713;27;20722;-65
2023/03/15 09:33:06;;;;;;;8.50;3.30;;;;;;;;;;5091243;27;20469;-64
2023/03/15 09:35:34;;;;;;;5.43;3.00;;;;;;;;;;5086322;27;20199;-63
2023/03/15 09:38:02;;;;;;;5.80;3.17;;;;;;;;;;5094045;27;20227;-63
2023/03/15 09:40:48;;;;;;;6.30;3.13;;;;;;;;;;5090479;27;20203;-63
2023/03/15 09:43:34;;;;;;;4.90;2.63;;;;;;;;;;5087665;27;20314;-63
2023/03/15 09:46:04;;;;;;;3.93;2.53;;;;;;;;;;5087875;27;20260;-63
2023/03/15 09:48:34;;;;;;;2.90;2.60;;;;;;;;;;5092155;27;20686;-63
2023/03/15 09:51:07;;;;;;;3.93;2.63;;;;;;;;;;5104645;27;20402;-63
2023/03/15 09:53:37;;;;;;;6.20;2.80;;;;;;;;;;5088954;27;20280;-64
2023/03/15 09:56:16;;;;;;;2.77;2.57;;;;;;;;;;5087650;27;20293;-63
2023/03/15 09:58:44;;;;;;;6.93;2.90;;;;;;;;;;5091352;27;20199;-64
2023/03/15 10:01:13;;;;;;;4.20;2.83;;;;;;;;;;5086776;27;20306;-63
2023/03/15 10:03:48;;;;;;;4.83;2.60;;;;;;;;;;5087446;27;20790;-63
2023/03/15 10:06:18;;;;;;;3.20;2.30;;;;;;;;;;5086838;27;20747;-64
2023/03/15 10:08:47;;;;;;;2.87;2.20;;;;;;;;;;5104734;27;20211;-65
2023/03/15 10:11:38;;;;;;;2.97;2.40;;;;;;;;;;5086918;27;20552;-63
2023/03/15 10:14:24;;;;;;;5.20;3.00;;;;;;;;;;5078457;27;20680;-65
2023/03/15 10:16:51;;;;;;;3.03;2.20;;;;;;;;;;5108145;27;20245;-63
2023/03/15 10:19:25;;;;;;;2.87;2.30;;;;;;;;;;5081160;27;20260;-64
2023/03/15 10:22:12;;;;;;;2.97;2.17;;;;;;;;;;5082665;27;20195;-62
2023/03/15 10:24:54;;;;;;;3.17;2.23;;;;;;;;;;5088273;27;20234;-64
2023/03/15 10:27:37;;;;;;;3.03;2.00;;;;;;;;;;5082720;27;20239;-63
2023/03/15 10:30:18;;;;;;;2.67;2.30;;;;;;;;;;5084269;27;20250;-62
2023/03/15 10:32:49;;;;;;;2.10;1.90;;;;;;;;;;5096899;27;20223;-63
2023/03/15 10:35:18;;;;;;;2.00;1.90;;;;;;;;;;5090465;27;20259;-63
2023/03/15 10:37:46;;;;;;;1.97;1.63;;;;;;;;;;5090254;27;20204;-65
2023/03/15 10:40:14;;;;;;;3.07;1.60;;;;;;;;;;5085533;27;20211;-64
2023/03/15 10:42:43;;;;;;;1.73;1.67;;;;;;;;;;5087453;27;20228;-65
2023/03/15 10:45:21;;;;;;;1.60;1.50;;;;;;;;;;5099197;27;20230;-64
2023/03/15 10:47:49;;;;;;;3.07;1.80;;;;;;;;;;5086808;27;20270;-65
2023/03/15 10:50:26;;;;;;;2.27;1.80;;;;;;;;;;5087568;27;20418;-63
2023/03/15 10:52:55;;;;;;;2.40;1.70;;;;;;;;;;5088627;27;20227;-63
2023/03/15 10:55:33;;;;;;;3.70;1.80;;;;;;;;;;5083915;27;20319;-63
2023/03/15 10:58:14;;;;;;;2.63;1.50;;;;;;;;;;5111826;27;20200;-64
2023/03/15 11:00:48;;;;;;;1.40;1.30;;;;;;;;;;5119820;27;20642;-63
2023/03/15 11:03:17;;;;;;;1.50;1.40;;;;;;;;;;5101221;27;20575;-63
2023/03/15 11:05:49;;;;;;;3.70;1.40;;;;;;;;;;5102851;27;20226;-63
2023/03/15 11:08:19;;;;;;;2.03;1.47;;;;;;;;;;5099349;27;20342;-64
2023/03/15 11:10:54;;;;;;;1.33;1.20;;;;;;;;;;5089694;27;20208;-64
2023/03/15 11:13:27;;;;;;;1.37;1.27;;;;;;;;;;5087553;27;20319;-64
2023/03/15 11:16:06;;;;;;;5.70;1.30;;;;;;;;;;5083042;27;20295;-63
2023/03/15 11:18:42;;;;;;;2.00;1.50;;;;;;;;;;5094364;27;20198;-64
2023/03/15 11:21:14;;;;;;;1.87;1.40;;;;;;;;;;5097237;27;20730;-62
2023/03/15 11:23:43;;;;;;;2.00;1.80;;;;;;;;;;5099194;28;20275;-62
2023/03/15 11:26:21;;;;;;;3.20;2.30;;;;;;;;;;5098569;27;20334;-64
2023/03/15 11:29:00;;;;;;;1.60;1.50;;;;;;;;;;5093492;27;20572;-63
2023/03/15 11:31:28;;;;;;;4.30;1.70;;;;;;;;;;5098969;27;20204;-62
2023/03/15 11:34:04;;;;;;;1.93;1.50;;;;;;;;;;5100035;28;20417;-63
2023/03/15 11:36:34;;;;;;;3.10;1.50;;;;;;;;;;5118230;27;20284;-64
2023/03/15 11:39:03;;;;;;;1.70;1.60;;;;;;;;;;5093287;27;20211;-62
2023/03/15 11:41:33;;;;;;;1.70;1.60;;;;;;;;;;5099423;28;20910;-63
2023/03/15 11:44:04;;;;;;;1.50;1.20;;;;;;;;;;5106952;27;20216;-63
2023/03/15 11:46:34;;;;;;;2.03;1.80;;;;;;;;;;5119072;27;20211;-62
2023/03/15 11:49:04;;;;;;;1.40;1.30;;;;;;;;;;5104440;28;20208;-64
2023/03/15 11:51:33;;;;;;;1.57;1.47;;;;;;;;;;5111419;27;20677;-62
2023/03/15 11:54:08;;;;;;;1.33;1.20;;;;;;;;;;5104459;28;20284;-63
2023/03/15 11:56:39;;;;;;;1.80;1.40;;;;;;;;;;5106034;27;20194;-62
2023/03/15 11:59:10;;;;;;;3.23;1.53;;;;;;;;;;5105175;28;20291;-62
2023/03/15 12:01:37;;;;;;;2.63;1.33;;;;;;;;;;5108349;28;20618;-63
2023/03/15 12:04:24;;;;;;;1.57;1.47;;;;;;;;;;5084659;27;20722;-63
2023/03/15 12:06:53;;;;;;;1.57;1.40;;;;;;;;;;5102342;27;20214;-64
2023/03/15 12:09:39;;;;;;;1.17;1.13;;;;;;;;;;5085688;28;20669;-63
2023/03/15 12:12:25;;;;;;;2.50;1.70;;;;;;;;;;5084555;27;20792;-62
2023/03/15 12:15:11;;;;;;;3.43;1.23;;;;;;;;;;5088462;27;20223;-63
2023/03/15 12:17:42;;;;;;;2.27;1.50;;;;;;;;;;5088571;27;20212;-62
2023/03/15 12:20:18;;;;;;;3.37;2.13;;;;;;;;;;5123830;27;20287;-63
2023/03/15 12:22:52;;;;;;;2.97;1.40;;;;;;;;;;5116425;27;20247;-64
2023/03/15 12:25:19;;;;;;;1.60;1.50;;;;;;;;;;5104345;27;20250;-64
2023/03/15 12:27:48;;;;;;;2.07;1.30;;;;;;;;;;5099199;27;20236;-62
2023/03/15 12:30:21;;;;;;;1.60;1.50;;;;;;;;;;5094465;27;20677;-63
2023/03/15 12:32:51;;;;;;;2.13;1.43;;;;;;;;;;5114294;28;20207;-64
2023/03/15 12:35:20;;;;;;;4.67;1.40;;;;;;;;;;5109369;28;20227;-64
2023/03/15 12:37:49;;;;;;;2.30;1.33;;;;;;;;;;5106128;28;20723;-64
2023/03/15 12:40:17;;;;;;;2.03;1.40;;;;;;;;;;5117134;27;20255;-65
2023/03/15 12:42:48;;;;;;;1.80;1.40;;;;;;;;;;5109408;27;20737;-64
2023/03/15 12:45:15;;;;;;;3.27;1.30;;;;;;;;;;5101741;27;20204;-64
2023/03/15 12:48:08;;;;;;;2.03;1.50;;;;;;;;;;5088337;27;20991;-64
2023/03/15 12:50:46;;;;;;;2.03;1.60;;;;;;;;;;5082780;27;20232;-64
2023/03/15 12:53:38;;;;;;;1.50;1.33;;;;;;;;;;5092721;27;20292;-65
2023/03/15 12:56:18;;;;;;;3.30;1.50;;;;;;;;;;5093234;27;20343;-64
2023/03/15 12:58:53;;;;;;;1.87;1.33;;;;;;;;;;5097359;27;20250;-64
2023/03/15 13:01:24;;;;;;;1.17;1.07;;;;;;;;;;5105465;27;20299;-64
2023/03/15 13:03:57;;;;;;;2.20;1.03;;;;;;;;;;5102462;27;20223;-64
2023/03/15 13:06:34;;;;;;;2.13;1.07;;;;;;;;;;5103408;27;20421;-65
2023/03/15 13:09:03;;;;;;;2.33;1.40;;;;;;;;;;5089281;27;20722;-65
2023/03/15 13:11:30;;;;;;;4.40;1.73;;;;;;;;;;5088987;27;20566;-64
2023/03/15 13:13:58;;;;;;;1.20;1.10;;;;;;;;;;5087749;27;20262;-64
2023/03/15 13:16:38;;;;;;;2.77;1.20;;;;;;;;;;5103543;27;20249;-64
2023/03/15 13:19:15;;;;;;;2.20;1.30;;;;;;;;;;5086883;27;20613;-64
2023/03/15 13:22:02;;;;;;;1.40;1.30;;;;;;;;;;5089728;27;20314;-64
2023/03/15 13:24:33;;;;;;;1.27;1.20;;;;;;;;;;5088445;27;20232;-64
2023/03/15 13:27:07;;;;;;;1.10;1.00;;;;;;;;;;5093053;27;20292;-64
2023/03/15 13:29:34;;;;;;;2.03;1.57;;;;;;;;;;5086476;27;20281;-66
2023/03/15 13:32:11;;;;;;;3.17;1.70;;;;;;;;;;5093198;27;20207;-63
2023/03/15 13:34:39;;;;;;;1.13;1.07;;;;;;;;;;5092042;27;20884;-64
2023/03/15 13:37:11;;;;;;;1.70;1.50;;;;;;;;;;5088593;27;20204;-65
2023/03/15 13:39:38;;;;;;;2.07;1.30;;;;;;;;;;5088582;27;20235;-65
2023/03/15 13:42:16;;;;;;;1.07;1.00;;;;;;;;;;5091337;27;20296;-65
2023/03/15 13:44:43;;;;;;;1.10;1.00;;;;;;;;;;5090958;27;20258;-63
2023/03/15 13:47:23;;;;;;;1.47;1.27;;;;;;;;;;5093564;27;20279;-63
2023/03/15 13:49:54;;;;;;;3.23;1.30;;;;;;;;;;5090675;27;20230;-65
2023/03/15 13:52:22;;;;;;;2.00;1.20;;;;;;;;;;5087542;27;20294;-65
2023/03/15 13:54:51;;;;;;;2.43;1.20;;;;;;;;;;5095302;27;20235;-65
2023/03/15 13:57:20;;;;;;;1.60;1.20;;;;;;;;;;5094912;27;20898;-65
2023/03/15 13:59:59;;;;;;;2.13;1.33;;;;;;;;;;5088522;27;20245;-64
2023/03/15 14:02:27;;;;;;;2.23;1.20;;;;;;;;;;5088739;27;20252;-63
2023/03/15 14:04:59;;;;;;;1.90;1.20;;;;;;;;;;5088658;27;20741;-63
2023/03/15 14:07:47;;;;;;;1.77;1.20;;;;;;;;;;5093913;27;20203;-63
2023/03/15 14:10:23;;;;;;;2.57;1.30;;;;;;;;;;5103658;27;20902;-64
2023/03/15 14:12:51;;;;;;;1.70;1.60;;;;;;;;;;5088955;27;20641;-63
2023/03/15 14:15:20;;;;;;;3.20;1.40;;;;;;;;;;5096104;27;20224;-65
2023/03/15 14:17:59;;;;;;;1.27;1.20;;;;;;;;;;5085374;27;20341;-65
2023/03/15 14:20:36;;;;;;;1.57;1.17;;;;;;;;;;5106546;27;20220;-65
2023/03/15 14:23:04;;;;;;;2.03;1.30;;;;;;;;;;5092098;27;20206;-65
2023/03/15 14:25:35;;;;;;;1.77;1.60;;;;;;;;;;5074137;27;20354;-65
2023/03/15 14:28:04;;;;;;;10.13;5.43;;;;;;;;;;5080874;27;20289;-65
2023/03/15 14:30:33;;;;;;;1.57;1.47;;;;;;;;;;5077235;27;20298;-65
2023/03/15 14:33:03;;;;;;;2.00;1.70;;;;;;;;;;5100941;27;21431;-65
2023/03/15 14:35:37;;;;;;;2.10;1.77;;;;;;;;;;5086884;27;20596;-65
2023/03/15 14:38:14;;;;;;;2.70;2.20;;;;;;;;;;5092262;27;20215;-65
2023/03/15 14:40:41;;;;;;;4.50;2.43;;;;;;;;;;5103117;27;20766;-65
2023/03/15 14:43:09;;;;;;;1.73;1.50;;;;;;;;;;5100723;27;20211;-65
2023/03/15 14:45:38;;;;;;;1.70;1.20;;;;;;;;;;5077848;27;20204;-65
2023/03/15 14:48:14;;;;;;;1.83;1.20;;;;;;;;;;5092480;27;20204;-65
2023/03/15 14:50:42;;;;;;;3.27;1.30;;;;;;;;;;5078966;27;20374;-63
2023/03/15 14:53:14;;;;;;;1.07;1.07;;;;;;;;;;5097489;27;20208;-65
2023/03/15 14:55:41;;;;;;;3.37;1.53;;;;;;;;;;5089859;27;20224;-66
2023/03/15 14:58:16;;;;;;;1.20;1.10;;;;;;;;;;5097876;27;20248;-64